Aeroporto :
LOGIN :

Iscrizione | Disclaimer

   EN    FR    IT 

 










Sommario :    VFR   VFR Marginale   IFR   IFR Intensivo   IFR Molto Intensivo
Visibilità : 
Base nubi : 
>= 8 km
>= 3000ft
5 / 8 km
1000 / 3000 ft
1500m / 5 km
500 / 1000 ft
800 / 1500m
200 / 500 ft
< 800m
< 200 ft
Simboli :   Temporali  Nebbia  Neve Forte  Precipitazioni Forti  Vento > 20 kt
SIGMETs :   Varie  Temporali  Ghiacco  Turbolenza  Onda orograficha  Ceneri Vulcaniche







- Altitudine del aeroporto : 132 ft


EGXE - RAF Leeming

ULTIMO METAR :
  • 210650Z 15006KT 9999 -RA FEW010 SCT080 14/13 Q1023 TEMPO SCT020 RMK BLU TEMPO WHT

METARs OBSOLETI :
  • 210621Z 12006KT 9999 FEW010 BKN070 13/12 Q1023 RMK BLU
  • 210550Z 13007KT 9999 FEW020 SCT040 BKN092 13/12 Q1023 RMK BLU
  • 210450Z AUTO 14006KT 5000 BR FEW003/// SCT023/// BKN080/// 13/12 Q1023
  • 210350Z AUTO 13007KT 4500 BR FEW003/// SCT013/// BKN070/// 12/12 Q1022

TAF TAF EGXE
Valido dal 21 a 06 ore il 21 a 15 ore UTC


210546Z 2106/2115 23012KT 9999 FEW020
TEMPO 2106/2110 SCT020
PROB30
TEMPO 2110/2115 23015G25KT 5000 SHRA SCT020
Nessun NOTAM noto per questo aeroporto.



MetMap, La meteo Aeronautica in un colpo d'occhio ! - Copyright ORBIFLY Dicembre 2007 - Disclaimer

ORBIFLY MET'MAP TEAM :

Programmazione e sviluppo : Alexandra Zaïnal
Concezione e sviluppo : Baudouin d'Aumeries
Co-Programmazione e sviluppo : Marc-Olivier Méhu
Supporto tecnico e logistico : Manuel Goepfert
Aiuto per la traduzione : Arnaldo La Scala

Contatto : metmap@orbifly.com




FONTI E CREDITI :

   NOAA